createdAt,value
2019-04-04T00:02:13.613Z,0.15
2019-04-04T00:04:42.389Z,0.20
2019-04-04T00:07:11.186Z,0.30
2019-04-04T00:09:40.305Z,0.20
2019-04-04T00:12:09.106Z,0.50
2019-04-04T00:14:38.185Z,0.42
2019-04-04T00:17:07.393Z,0.40
2019-04-04T00:19:36.160Z,0.20
2019-04-04T00:22:05.558Z,0.30
2019-04-04T00:24:34.784Z,0.00
2019-04-04T00:27:03.555Z,0.20
2019-04-04T00:29:32.374Z,0.47
2019-04-04T00:32:01.355Z,0.42
2019-04-04T00:34:30.450Z,0.40
2019-04-04T00:36:59.230Z,0.20
2019-04-04T00:39:28.041Z,0.17
2019-04-04T00:41:57.339Z,0.40
2019-04-04T00:44:26.548Z,0.95
2019-04-04T00:46:55.354Z,0.30
2019-04-04T00:49:24.516Z,0.42
2019-04-04T00:51:53.619Z,0.20
2019-04-04T00:54:22.821Z,0.37
2019-04-04T00:56:51.605Z,0.62
2019-04-04T00:59:22.786Z,0.30
2019-04-04T01:01:51.238Z,0.30
2019-04-04T01:04:20.019Z,0.15
2019-04-04T01:06:48.837Z,0.20
2019-04-04T01:09:18.002Z,0.20
2019-04-04T01:11:47.103Z,0.10
2019-04-04T01:14:16.303Z,0.20
2019-04-04T01:16:45.395Z,0.17
2019-04-04T01:19:14.341Z,0.40
2019-04-04T01:21:43.390Z,0.10
2019-04-04T01:24:12.171Z,0.15
2019-04-04T01:26:40.959Z,0.30
2019-04-04T01:29:10.956Z,0.20
2019-04-04T01:31:40.595Z,0.20
2019-04-04T01:34:09.383Z,0.68
2019-04-04T01:36:38.576Z,0.45
2019-04-04T01:39:08.694Z,0.20
2019-04-04T01:41:37.520Z,0.17
2019-04-04T01:44:06.581Z,0.13
2019-04-04T01:46:35.354Z,0.20
2019-04-04T01:49:04.464Z,0.30
2019-04-04T01:51:33.768Z,0.20
2019-04-04T01:54:02.574Z,0.40
2019-04-04T01:56:31.749Z,0.30
2019-04-04T01:59:00.466Z,0.30
2019-04-04T02:01:29.173Z,0.10
2019-04-04T02:03:58.245Z,0.20
2019-04-04T02:06:28.696Z,0.20
2019-04-04T02:08:58.161Z,0.10
2019-04-04T02:11:26.971Z,0.23
2019-04-04T02:13:55.745Z,0.40
2019-04-04T02:16:24.448Z,1.30
2019-04-04T02:18:53.896Z,0.20
2019-04-04T02:21:23.738Z,0.90
2019-04-04T02:23:52.844Z,0.20
2019-04-04T02:26:22.036Z,0.25
2019-04-04T02:28:50.813Z,0.10
2019-04-04T02:31:21.017Z,0.10
2019-04-04T02:33:50.865Z,0.30
2019-04-04T02:36:19.647Z,0.10
2019-04-04T02:39:02.893Z,0.20
2019-04-04T02:41:31.983Z,0.10
2019-04-04T02:44:01.066Z,0.30
2019-04-04T02:46:30.078Z,0.00
2019-04-04T02:48:59.169Z,0.55
2019-04-04T02:51:28.268Z,0.20
2019-04-04T02:53:57.354Z,0.13
2019-04-04T02:56:26.450Z,1.10
2019-04-04T02:58:55.452Z,0.30
2019-04-04T03:01:24.652Z,0.20
2019-04-04T03:03:53.366Z,0.20
2019-04-04T03:06:24.489Z,0.30
2019-04-04T03:08:52.958Z,0.10
2019-04-04T03:11:22.915Z,0.20
2019-04-04T03:13:51.773Z,0.10
2019-04-04T03:16:21.630Z,0.10
2019-04-04T03:18:51.294Z,0.00
2019-04-04T03:21:23.369Z,0.00
2019-04-04T03:23:51.227Z,0.20
2019-04-04T03:26:20.657Z,0.00
2019-04-04T03:28:49.733Z,0.00
2019-04-04T03:31:18.776Z,0.10
2019-04-04T03:33:47.925Z,0.05
2019-04-04T03:36:17.014Z,0.10
2019-04-04T03:38:47.059Z,0.75
2019-04-04T03:41:16.257Z,0.20
2019-04-04T03:43:48.011Z,0.53
2019-04-04T03:46:15.545Z,0.20
2019-04-04T03:48:44.647Z,0.00
2019-04-04T03:51:13.750Z,0.00
2019-04-04T03:53:48.718Z,1.12
2019-04-04T03:56:15.231Z,0.30
2019-04-04T03:58:44.314Z,0.28
2019-04-04T04:01:13.517Z,0.20
2019-04-04T04:03:42.300Z,0.05
2019-04-04T04:06:11.087Z,0.10
2019-04-04T04:08:39.915Z,0.28
2019-04-04T04:11:08.695Z,0.75
2019-04-04T04:13:38.067Z,0.10
2019-04-04T04:16:06.874Z,0.10
2019-04-04T04:18:35.655Z,1.15
2019-04-04T04:21:09.722Z,0.10
2019-04-04T04:23:35.273Z,0.20
2019-04-04T04:26:08.252Z,0.42
2019-04-04T04:28:35.408Z,0.10
2019-04-04T04:31:04.507Z,0.00
2019-04-04T04:33:33.811Z,0.50
2019-04-04T04:36:03.008Z,0.53
2019-04-04T04:38:32.098Z,0.30
2019-04-04T04:41:01.194Z,0.10
2019-04-04T04:43:33.495Z,0.37
2019-04-04T04:46:00.737Z,0.10
2019-04-04T04:48:31.825Z,0.20
2019-04-04T04:51:00.344Z,0.05
2019-04-04T04:53:29.249Z,0.10
2019-04-04T04:56:00.479Z,0.10
2019-04-04T04:58:28.797Z,0.10
2019-04-04T05:00:57.617Z,0.10
2019-04-04T05:03:26.514Z,0.15
2019-04-04T05:05:55.290Z,0.15
2019-04-04T05:08:24.097Z,0.28
2019-04-04T05:10:53.222Z,0.13
2019-04-04T05:13:24.620Z,0.30
2019-04-04T05:15:53.364Z,0.15
2019-04-04T05:18:22.182Z,0.15
2019-04-04T05:20:51.344Z,0.10
2019-04-04T05:23:20.649Z,0.20
2019-04-04T05:25:53.985Z,0.08
2019-04-04T05:28:20.311Z,0.20
2019-04-04T05:30:49.065Z,0.20
2019-04-04T05:33:18.258Z,0.37
2019-04-04T05:35:47.037Z,0.93
2019-04-04T05:38:16.041Z,0.30
2019-04-04T05:40:44.889Z,0.20
2019-04-04T05:43:15.021Z,0.42
2019-04-04T05:45:45.305Z,0.00
2019-04-04T05:48:15.309Z,0.17
2019-04-04T05:50:44.517Z,0.23
2019-04-04T05:53:13.463Z,0.10
2019-04-04T05:55:42.480Z,0.00
2019-04-04T05:58:11.720Z,0.15
2019-04-04T06:00:42.419Z,0.55
2019-04-04T06:03:12.998Z,0.17
2019-04-04T06:05:41.691Z,0.10
2019-04-04T06:08:10.750Z,0.45
2019-04-04T06:10:39.841Z,0.10
2019-04-04T06:13:09.132Z,0.10
2019-04-04T06:15:38.231Z,0.10
2019-04-04T06:18:07.055Z,0.13
2019-04-04T06:20:36.118Z,0.35
2019-04-04T06:23:05.073Z,0.10
2019-04-04T06:25:35.684Z,0.13
2019-04-04T06:28:05.047Z,0.10
2019-04-04T06:30:42.965Z,0.13
2019-04-04T06:33:05.138Z,0.10
2019-04-04T06:35:35.505Z,0.10
2019-04-04T06:38:04.295Z,0.10
2019-04-04T06:40:33.055Z,0.20
2019-04-04T06:43:03.805Z,0.10
2019-04-04T06:45:33.838Z,0.30
2019-04-04T06:48:02.584Z,0.28
2019-04-04T06:50:31.368Z,0.00
2019-04-04T06:53:00.725Z,0.20
2019-04-04T06:55:29.592Z,0.10
2019-04-04T06:57:58.401Z,0.30
2019-04-04T07:00:27.394Z,0.10
2019-04-04T07:02:56.690Z,0.28
2019-04-04T07:05:25.576Z,0.13
2019-04-04T07:07:54.587Z,0.15
2019-04-04T07:10:23.790Z,0.10
2019-04-04T07:13:04.745Z,0.15
2019-04-04T07:15:23.542Z,0.10
2019-04-04T07:17:52.330Z,0.00
2019-04-04T07:20:21.390Z,0.20
2019-04-04T07:22:50.139Z,0.10
2019-04-04T07:25:19.187Z,0.00
2019-04-04T07:27:48.285Z,1.05
2019-04-04T07:30:17.108Z,0.20
2019-04-04T07:32:46.364Z,0.35
2019-04-04T07:35:17.127Z,0.10
2019-04-04T07:37:46.362Z,0.10
2019-04-04T07:40:15.404Z,0.20
2019-04-04T07:42:47.117Z,0.05
2019-04-04T07:45:15.059Z,0.10
2019-04-04T07:47:46.641Z,0.17
2019-04-04T07:50:14.515Z,0.00
2019-04-04T07:52:43.301Z,0.10
2019-04-04T07:55:12.540Z,0.10
2019-04-04T07:57:41.360Z,0.10
2019-04-04T08:00:10.212Z,0.10
2019-04-04T08:02:39.213Z,0.10
2019-04-04T08:05:11.701Z,0.00
2019-04-04T08:07:40.229Z,0.00
2019-04-04T08:10:20.076Z,0.03
2019-04-04T08:12:58.537Z,0.00
2019-04-04T08:15:27.629Z,0.08
2019-04-04T08:17:56.724Z,0.00
2019-04-04T08:20:26.032Z,0.00
2019-04-04T08:22:55.233Z,0.00
2019-04-04T08:25:24.424Z,0.00
2019-04-04T08:27:53.531Z,0.00
2019-04-04T08:30:22.719Z,0.00
2019-04-04T08:32:52.945Z,0.10
2019-04-04T08:35:22.035Z,0.33
2019-04-04T08:37:51.165Z,0.10
2019-04-04T08:40:20.226Z,0.03
2019-04-04T08:42:49.331Z,0.10
2019-04-04T08:45:18.531Z,0.10
2019-04-04T08:47:47.294Z,0.28
2019-04-04T08:50:16.411Z,0.30
2019-04-04T08:53:03.324Z,0.30
2019-04-04T08:55:32.419Z,0.10
2019-04-04T08:58:01.208Z,0.10
2019-04-04T09:00:29.965Z,0.42
2019-04-04T09:02:59.925Z,0.30
2019-04-04T09:05:28.719Z,0.20
2019-04-04T09:07:57.806Z,0.35
2019-04-04T09:10:26.896Z,0.25
2019-04-04T09:12:56.103Z,0.30
2019-04-04T09:15:24.877Z,0.47
2019-04-04T09:17:54.021Z,0.28
2019-04-04T09:20:22.819Z,0.37
2019-04-04T09:22:52.899Z,0.30
2019-04-04T09:25:21.698Z,0.30
2019-04-04T09:27:50.888Z,1.07
2019-04-04T09:30:21.949Z,0.08
2019-04-04T09:32:52.843Z,0.10
2019-04-04T09:35:21.699Z,0.28
2019-04-04T09:37:50.476Z,0.80
2019-04-04T09:40:19.295Z,0.10
2019-04-04T09:42:49.041Z,0.50
2019-04-04T09:45:18.242Z,0.37
2019-04-04T09:47:47.007Z,0.30
2019-04-04T09:50:16.449Z,0.40
2019-04-04T09:52:46.431Z,0.30
2019-04-04T09:55:15.463Z,0.20
2019-04-04T09:57:44.655Z,0.30
2019-04-04T10:00:15.807Z,0.50
2019-04-04T10:02:45.728Z,0.20
2019-04-04T10:05:15.856Z,0.20
2019-04-04T10:07:44.634Z,0.17
2019-04-04T10:10:13.655Z,0.40
2019-04-04T10:12:42.613Z,0.10
2019-04-04T10:15:11.793Z,0.28
2019-04-04T10:17:40.582Z,0.28
2019-04-04T10:20:09.694Z,0.20
2019-04-04T10:22:38.797Z,0.30
2019-04-04T10:25:07.986Z,0.10
2019-04-04T10:27:36.780Z,0.17
2019-04-04T10:30:07.723Z,0.20
2019-04-04T10:32:36.642Z,0.20
2019-04-04T10:35:07.763Z,0.23
2019-04-04T10:37:36.556Z,0.30
2019-04-04T10:40:07.589Z,0.40
2019-04-04T10:42:37.906Z,0.30
2019-04-04T10:45:08.502Z,0.40
2019-04-04T10:47:37.279Z,0.20
2019-04-04T10:50:07.490Z,0.53
2019-04-04T10:52:36.552Z,0.40
2019-04-04T10:55:06.865Z,0.30
2019-04-04T10:57:35.972Z,1.35
2019-04-04T11:00:07.835Z,0.50
2019-04-04T11:02:37.034Z,0.30
2019-04-04T11:05:07.719Z,0.30
2019-04-04T11:07:36.508Z,1.17
2019-04-04T11:10:08.829Z,0.47
2019-04-04T11:12:38.125Z,0.35
2019-04-04T11:15:07.530Z,0.50
2019-04-04T11:17:36.636Z,0.40
2019-04-04T11:20:06.709Z,0.40
2019-04-04T11:22:35.943Z,0.40
2019-04-04T11:25:05.806Z,0.40
2019-04-04T11:27:34.964Z,0.60
2019-04-04T11:30:06.097Z,0.70
2019-04-04T11:32:35.303Z,0.50
2019-04-04T11:35:05.532Z,0.40
2019-04-04T11:37:34.311Z,0.40
2019-04-04T11:40:03.752Z,0.40
2019-04-04T11:42:32.477Z,0.33
2019-04-04T11:45:01.610Z,0.50
2019-04-04T11:47:30.394Z,0.40
2019-04-04T11:49:59.179Z,0.55
2019-04-04T11:52:28.171Z,0.72
2019-04-04T11:55:01.018Z,0.50
2019-04-04T11:57:30.167Z,0.65
2019-04-04T11:59:58.997Z,0.80
2019-04-04T12:02:32.256Z,0.72
2019-04-04T12:05:00.055Z,0.40
2019-04-04T12:07:29.105Z,0.30
2019-04-04T12:10:07.382Z,1.35
2019-04-04T12:12:28.735Z,0.60
2019-04-04T12:14:57.563Z,1.60
2019-04-04T12:17:26.371Z,0.62
2019-04-04T12:19:55.115Z,0.45
2019-04-04T12:22:24.421Z,0.68
2019-04-04T12:24:53.197Z,0.40
2019-04-04T12:27:22.083Z,0.57
2019-04-04T12:29:50.800Z,0.42
2019-04-04T12:32:19.963Z,0.40
2019-04-04T12:34:49.208Z,0.15
2019-04-04T12:37:18.007Z,0.40
2019-04-04T12:39:46.782Z,0.28
2019-04-04T12:42:15.737Z,0.60
2019-04-04T12:44:44.936Z,0.75
2019-04-04T12:47:13.726Z,1.62
2019-04-04T12:49:42.925Z,1.80
2019-04-04T12:52:11.698Z,1.87
2019-04-04T12:54:40.406Z,1.57
2019-04-04T12:57:09.589Z,2.80
2019-04-04T12:59:38.695Z,3.05
2019-04-04T13:02:07.900Z,2.95
2019-04-04T13:04:36.991Z,2.55
2019-04-04T13:07:05.713Z,2.85
2019-04-04T13:09:34.490Z,3.58
2019-04-04T13:12:03.364Z,3.17
2019-04-04T13:14:32.158Z,2.85
2019-04-04T13:17:00.999Z,3.27
2019-04-04T13:19:30.152Z,3.12
2019-04-04T13:21:58.981Z,2.70
2019-04-04T13:24:28.014Z,3.10
2019-04-04T13:26:56.801Z,2.10
2019-04-04T13:29:26.013Z,2.12
2019-04-04T13:31:54.998Z,2.52
2019-04-04T13:34:24.089Z,2.37
2019-04-04T13:36:52.877Z,2.52
2019-04-04T13:39:22.092Z,2.12
2019-04-04T13:41:50.952Z,1.82
2019-04-04T13:44:23.165Z,1.95
2019-04-04T13:46:50.213Z,2.45
2019-04-04T13:49:19.292Z,1.47
2019-04-04T13:51:50.904Z,1.98
2019-04-04T13:54:20.148Z,1.52
2019-04-04T13:56:49.246Z,2.15
2019-04-04T13:59:18.074Z,1.75
2019-04-04T14:01:46.919Z,1.50
2019-04-04T14:04:15.624Z,1.25
2019-04-04T14:06:44.710Z,2.10
2019-04-04T14:09:13.803Z,1.25
2019-04-04T14:11:42.904Z,1.12
2019-04-04T14:14:12.089Z,2.02
2019-04-04T14:16:40.878Z,1.02
2019-04-04T14:19:09.875Z,1.15
2019-04-04T14:21:39.276Z,1.77
2019-04-04T14:24:13.842Z,1.12
2019-04-04T14:26:39.116Z,1.47
2019-04-04T14:29:08.208Z,1.70
2019-04-04T14:31:37.305Z,1.22
2019-04-04T14:34:06.007Z,0.93
2019-04-04T14:36:34.772Z,1.75
2019-04-04T14:39:06.252Z,1.67
2019-04-04T14:41:35.495Z,1.30
2019-04-04T14:44:04.322Z,1.35
2019-04-04T14:46:33.420Z,1.45
2019-04-04T14:49:02.508Z,1.37
2019-04-04T14:51:31.724Z,1.30
2019-04-04T14:54:00.815Z,1.65
2019-04-04T14:56:29.607Z,1.30
2019-04-04T14:58:58.697Z,0.88
2019-04-04T15:01:27.894Z,1.60
2019-04-04T15:03:56.987Z,1.00
2019-04-04T15:06:25.738Z,2.30
2019-04-04T15:08:55.287Z,1.25
2019-04-04T15:11:24.757Z,1.90
2019-04-04T15:13:54.101Z,1.25
2019-04-04T15:16:22.819Z,1.52
2019-04-04T15:18:51.524Z,2.15
2019-04-04T15:21:20.872Z,1.45
2019-04-04T15:23:49.705Z,2.05
2019-04-04T15:26:18.473Z,1.55
2019-04-04T15:28:47.649Z,1.45
2019-04-04T15:31:16.862Z,2.10
2019-04-04T15:33:45.949Z,3.22
2019-04-04T15:36:14.749Z,2.08
2019-04-04T15:38:43.936Z,2.95
2019-04-04T15:41:13.031Z,3.08
2019-04-04T15:43:41.801Z,2.98
2019-04-04T15:46:11.848Z,3.30
2019-04-04T15:48:40.937Z,3.08
2019-04-04T15:51:10.024Z,3.00
2019-04-04T15:53:39.028Z,3.92
2019-04-04T15:56:07.815Z,3.55
2019-04-04T15:58:36.596Z,3.83
2019-04-04T16:01:05.591Z,3.22
2019-04-04T16:03:34.697Z,4.78
2019-04-04T16:06:03.791Z,3.98
2019-04-04T16:08:32.615Z,3.90
2019-04-04T16:11:01.675Z,3.58
2019-04-04T16:13:30.992Z,3.27
2019-04-04T16:16:00.072Z,3.45
2019-04-04T16:18:28.877Z,4.83
2019-04-04T16:20:57.958Z,3.50
2019-04-04T16:23:27.160Z,3.92
2019-04-04T16:25:56.359Z,4.53
2019-04-04T16:28:25.452Z,3.65
2019-04-04T16:30:54.275Z,4.00
2019-04-04T16:33:23.241Z,3.75
2019-04-04T16:35:52.016Z,3.98
2019-04-04T16:38:22.942Z,3.72
2019-04-04T16:40:52.146Z,3.92
2019-04-04T16:43:20.990Z,3.45
2019-04-04T16:45:49.774Z,3.47
2019-04-04T16:48:18.561Z,3.85
2019-04-04T16:50:47.731Z,3.83
2019-04-04T16:53:17.036Z,3.77
2019-04-04T16:55:45.827Z,4.30
2019-04-04T16:58:15.019Z,3.72
2019-04-04T17:00:44.127Z,4.05
2019-04-04T17:03:12.974Z,3.83
2019-04-04T17:05:41.798Z,3.92
2019-04-04T17:08:10.517Z,4.85
2019-04-04T17:10:39.582Z,3.80
2019-04-04T17:13:08.354Z,3.70
2019-04-04T17:15:37.089Z,3.80
2019-04-04T17:18:05.877Z,3.55
2019-04-04T17:20:34.603Z,3.47
2019-04-04T17:23:03.735Z,4.08
2019-04-04T17:25:32.529Z,2.95
2019-04-04T17:28:02.259Z,3.00
2019-04-04T17:30:31.746Z,5.05
2019-04-04T17:33:01.148Z,3.72
2019-04-04T17:35:30.753Z,3.60
2019-04-04T17:37:59.857Z,3.60
2019-04-04T17:40:28.942Z,4.00
2019-04-04T17:42:59.072Z,3.52
2019-04-04T17:45:27.899Z,3.47
2019-04-04T17:47:56.892Z,2.90
2019-04-04T17:53:00.605Z,3.50
2019-04-04T17:55:29.892Z,3.77
2019-04-04T17:57:58.911Z,3.20
2019-04-04T18:00:29.303Z,2.72
2019-04-04T18:02:58.101Z,3.15
2019-04-04T18:05:26.899Z,3.72
2019-04-04T18:07:56.085Z,4.47
2019-04-04T18:10:24.940Z,3.33
2019-04-04T18:12:54.070Z,2.92
2019-04-04T18:15:22.878Z,2.60
2019-04-04T18:17:51.726Z,3.15
2019-04-04T18:20:20.530Z,3.87
2019-04-04T18:22:49.693Z,4.50
2019-04-04T18:25:37.818Z,3.22
2019-04-04T18:28:06.587Z,4.20
2019-04-04T18:30:35.765Z,3.37
2019-04-04T18:33:05.073Z,2.83
2019-04-04T18:35:34.175Z,3.72
2019-04-04T18:38:03.397Z,3.65
2019-04-04T18:40:32.271Z,2.25
2019-04-04T18:43:01.061Z,3.67
2019-04-04T18:45:29.850Z,3.47
2019-04-04T18:48:02.112Z,2.98
2019-04-04T18:50:30.897Z,3.30
2019-04-04T18:53:00.124Z,3.27
2019-04-04T18:58:03.369Z,2.58
2019-04-04T19:00:32.167Z,2.15
2019-04-04T19:03:00.955Z,3.12
2019-04-04T19:05:29.777Z,3.12
2019-04-04T19:10:46.495Z,3.17
2019-04-04T19:13:15.739Z,3.27
2019-04-04T19:15:44.803Z,2.10
2019-04-04T19:18:13.890Z,3.00
2019-04-04T19:20:42.600Z,2.75
2019-04-04T19:23:11.988Z,2.77
2019-04-04T19:25:41.083Z,2.80
2019-04-04T19:28:10.173Z,2.67
2019-04-04T19:30:38.990Z,2.90
2019-04-04T19:33:08.162Z,2.05
2019-04-04T19:35:36.950Z,1.65
2019-04-04T19:38:06.161Z,3.55
2019-04-04T19:40:34.979Z,3.05
2019-04-04T19:43:03.896Z,2.20
2019-04-04T19:45:32.729Z,2.52
2019-04-04T19:48:01.724Z,3.40
2019-04-04T19:50:30.548Z,3.17
2019-04-04T19:52:59.815Z,2.83
2019-04-04T19:55:28.929Z,3.22
2019-04-04T19:57:57.729Z,3.42
2019-04-04T20:00:26.903Z,1.90
2019-04-04T20:02:56.037Z,2.15
2019-04-04T20:05:24.956Z,3.40
2019-04-04T20:07:54.201Z,2.15
2019-04-04T20:10:23.016Z,2.77
2019-04-04T20:12:53.415Z,3.02
2019-04-04T20:15:22.414Z,2.60
2019-04-04T20:17:51.203Z,2.27
2019-04-04T20:20:20.032Z,2.58
2019-04-04T20:22:48.953Z,2.60
2019-04-04T20:25:18.080Z,3.20
2019-04-04T20:27:54.646Z,3.55
2019-04-04T20:30:20.530Z,2.12
2019-04-04T20:32:49.668Z,1.57
2019-04-04T20:35:18.876Z,2.75
2019-04-04T20:37:47.663Z,2.33
2019-04-04T20:40:16.780Z,2.80
2019-04-04T20:42:46.058Z,2.65
2019-04-04T20:45:15.147Z,2.70
2019-04-04T20:47:43.974Z,2.58
2019-04-04T20:50:13.138Z,3.47
2019-04-04T20:52:42.235Z,2.92
2019-04-04T20:55:11.111Z,3.60
2019-04-04T20:57:39.935Z,2.40
2019-04-04T21:00:09.012Z,3.02
2019-04-04T21:02:37.903Z,2.87
2019-04-04T21:05:08.447Z,3.67
2019-04-04T21:07:37.644Z,3.47
2019-04-04T21:10:08.479Z,3.98
2019-04-04T21:12:37.681Z,2.65
2019-04-04T21:15:07.885Z,3.98
2019-04-04T21:17:36.684Z,3.98
2019-04-04T21:20:07.320Z,3.35
2019-04-04T21:22:37.449Z,3.52
2019-04-04T21:25:06.940Z,3.35
2019-04-04T21:27:36.145Z,3.70
2019-04-04T21:30:07.598Z,5.37
2019-04-04T21:32:36.905Z,2.80
2019-04-04T21:35:08.516Z,3.12
2019-04-04T21:37:37.248Z,3.20
2019-04-04T21:40:07.146Z,3.40
2019-04-04T21:42:35.965Z,3.83
2019-04-04T21:45:06.720Z,4.53
2019-04-04T21:47:35.774Z,3.72
2019-04-04T21:50:06.302Z,3.02
2019-04-04T21:52:35.566Z,3.80
2019-04-04T21:55:05.679Z,3.35
2019-04-04T21:57:34.496Z,2.98
2019-04-04T22:00:03.610Z,3.60
2019-04-04T22:02:32.920Z,3.22
2019-04-04T22:05:01.736Z,3.15
2019-04-04T22:07:30.893Z,3.85
2019-04-04T22:10:00.001Z,3.65
2019-04-04T22:12:29.086Z,3.77
2019-04-04T22:14:58.181Z,4.00
2019-04-04T22:17:27.387Z,3.05
2019-04-04T22:19:56.106Z,3.45
2019-04-04T22:22:25.276Z,3.45
2019-04-04T22:24:54.465Z,3.20
2019-04-04T22:27:23.573Z,4.00
2019-04-04T22:29:52.363Z,3.67
2019-04-04T22:32:21.411Z,2.90
2019-04-04T22:34:50.235Z,4.30
2019-04-04T22:37:19.230Z,4.33
2019-04-04T22:39:48.434Z,4.90
2019-04-04T22:42:17.303Z,3.98
2019-04-04T22:44:46.432Z,4.22
2019-04-04T22:47:15.174Z,6.12
2019-04-04T22:49:44.310Z,4.67
2019-04-04T22:52:13.607Z,3.83
2019-04-04T22:54:42.822Z,4.47
2019-04-04T22:57:12.002Z,3.45
2019-04-04T22:59:41.008Z,4.72
2019-04-04T23:02:10.225Z,3.85
2019-04-04T23:04:39.302Z,4.50
2019-04-04T23:07:08.086Z,5.22
2019-04-04T23:09:37.188Z,4.33
2019-04-04T23:12:06.500Z,4.45
2019-04-04T23:14:47.473Z,3.87
2019-04-04T23:17:06.422Z,3.65
2019-04-04T23:19:35.244Z,4.62
2019-04-04T23:22:05.184Z,5.12
2019-04-04T23:24:34.017Z,4.33
2019-04-04T23:27:03.124Z,4.97
2019-04-04T23:29:32.213Z,5.58
2019-04-04T23:32:01.515Z,4.60
2019-04-04T23:34:30.611Z,4.30
2019-04-04T23:36:59.395Z,4.40
2019-04-04T23:39:28.508Z,6.20
2019-04-04T23:41:57.800Z,4.58
2019-04-04T23:44:26.577Z,4.62
2019-04-04T23:46:55.330Z,3.52
2019-04-04T23:49:24.048Z,4.00
2019-04-04T23:51:52.770Z,5.37
2019-04-04T23:54:21.840Z,4.72
2019-04-04T23:56:50.632Z,5.55
2019-04-04T23:59:19.420Z,4.12
